sensor_id;sensor_type;location;lat;lon;timestamp;temperature;humidity
47521;DHT22;32291;52.010;4.446;2024-02-21T00:01:05;9.90;99.90
47521;DHT22;32291;52.010;4.446;2024-02-21T00:02:12;9.90;99.90
47521;DHT22;32291;52.010;4.446;2024-02-21T00:03:14;9.90;99.90
47521;DHT22;32291;52.010;4.446;2024-02-21T00:04:17;9.90;99.90
47521;DHT22;32291;52.010;4.446;2024-02-21T00:05:19;9.90;99.90
47521;DHT22;32291;52.010;4.446;2024-02-21T00:06:25;9.90;99.90
47521;DHT22;32291;52.010;4.446;2024-02-21T00:07:32;9.90;99.90
47521;DHT22;32291;52.010;4.446;2024-02-21T00:08:39;9.90;99.90
47521;DHT22;32291;52.010;4.446;2024-02-21T00:09:46;9.90;99.90
47521;DHT22;32291;52.010;4.446;2024-02-21T00:10:48;9.90;99.90
47521;DHT22;32291;52.010;4.446;2024-02-21T00:11:55;9.90;99.90
47521;DHT22;32291;52.010;4.446;2024-02-21T00:13:02;9.80;99.90
47521;DHT22;32291;52.010;4.446;2024-02-21T00:14:09;9.90;99.90
47521;DHT22;32291;52.010;4.446;2024-02-21T00:15:16;9.90;99.90
47521;DHT22;32291;52.010;4.446;2024-02-21T00:16:23;9.90;99.90
47521;DHT22;32291;52.010;4.446;2024-02-21T00:17:30;9.90;99.90
47521;DHT22;32291;52.010;4.446;2024-02-21T00:18:36;10.00;99.90
47521;DHT22;32291;52.010;4.446;2024-02-21T00:19:46;9.90;99.90
47521;DHT22;32291;52.010;4.446;2024-02-21T00:20:48;9.90;99.90
47521;DHT22;32291;52.010;4.446;2024-02-21T00:21:55;9.90;99.90
47521;DHT22;32291;52.010;4.446;2024-02-21T00:22:57;9.90;99.90
47521;DHT22;32291;52.010;4.446;2024-02-21T00:24:04;9.90;99.90
47521;DHT22;32291;52.010;4.446;2024-02-21T00:25:11;10.00;99.90
47521;DHT22;32291;52.010;4.446;2024-02-21T00:26:14;9.90;99.90
47521;DHT22;32291;52.010;4.446;2024-02-21T00:27:16;9.90;99.90
47521;DHT22;32291;52.010;4.446;2024-02-21T00:28:18;9.90;99.90
47521;DHT22;32291;52.010;4.446;2024-02-21T00:29:25;9.90;99.90
47521;DHT22;32291;52.010;4.446;2024-02-21T00:30:32;9.90;99.90
47521;DHT22;32291;52.010;4.446;2024-02-21T00:31:38;9.90;99.90
47521;DHT22;32291;52.010;4.446;2024-02-21T00:32:45;9.90;99.90
47521;DHT22;32291;52.010;4.446;2024-02-21T00:33:52;9.90;99.90
47521;DHT22;32291;52.010;4.446;2024-02-21T00:35:02;9.90;99.90
47521;DHT22;32291;52.010;4.446;2024-02-21T00:36:36;9.90;99.90
47521;DHT22;32291;52.010;4.446;2024-02-21T00:38:13;9.90;99.90
47521;DHT22;32291;52.010;4.446;2024-02-21T00:39:20;9.90;99.90
47521;DHT22;32291;52.010;4.446;2024-02-21T00:40:27;9.90;99.90
47521;DHT22;32291;52.010;4.446;2024-02-21T00:41:38;9.90;99.90
47521;DHT22;32291;52.010;4.446;2024-02-21T00:42:57;9.90;99.90
47521;DHT22;32291;52.010;4.446;2024-02-21T00:44:04;9.90;99.90
47521;DHT22;32291;52.010;4.446;2024-02-21T00:45:08;9.90;99.90
47521;DHT22;32291;52.010;4.446;2024-02-21T00:46:23;9.90;99.90
47521;DHT22;32291;52.010;4.446;2024-02-21T00:47:41;9.90;99.90
47521;DHT22;32291;52.010;4.446;2024-02-21T00:48:48;9.90;99.90
47521;DHT22;32291;52.010;4.446;2024-02-21T00:49:56;9.90;99.90
47521;DHT22;32291;52.010;4.446;2024-02-21T00:51:03;9.90;99.90
47521;DHT22;32291;52.010;4.446;2024-02-21T00:52:05;9.90;99.90
47521;DHT22;32291;52.010;4.446;2024-02-21T00:53:13;9.90;99.90
47521;DHT22;32291;52.010;4.446;2024-02-21T00:54:16;10.00;99.90
47521;DHT22;32291;52.010;4.446;2024-02-21T00:55:23;10.00;99.90
47521;DHT22;32291;52.010;4.446;2024-02-21T00:56:25;10.00;99.90
47521;DHT22;32291;52.010;4.446;2024-02-21T00:57:32;10.00;99.90
47521;DHT22;32291;52.010;4.446;2024-02-21T00:58:39;10.00;99.90
47521;DHT22;32291;52.010;4.446;2024-02-21T00:59:46;10.00;99.90
47521;DHT22;32291;52.010;4.446;2024-02-21T01:00:48;10.00;99.90
47521;DHT22;32291;52.010;4.446;2024-02-21T01:01:55;10.00;99.90
47521;DHT22;32291;52.010;4.446;2024-02-21T01:02:57;10.00;99.90
47521;DHT22;32291;52.010;4.446;2024-02-21T01:04:04;10.00;99.90
47521;DHT22;32291;52.010;4.446;2024-02-21T01:05:12;10.00;99.90
47521;DHT22;32291;52.010;4.446;2024-02-21T01:06:14;10.00;99.90
47521;DHT22;32291;52.010;4.446;2024-02-21T01:07:16;10.00;99.90
47521;DHT22;32291;52.010;4.446;2024-02-21T01:08:23;10.00;99.90
47521;DHT22;32291;52.010;4.446;2024-02-21T01:09:33;10.00;99.90
47521;DHT22;32291;52.010;4.446;2024-02-21T01:10:36;10.00;99.90
47521;DHT22;32291;52.010;4.446;2024-02-21T01:13:45;10.10;99.90
47521;DHT22;32291;52.010;4.446;2024-02-21T01:15:40;10.10;99.90
47521;DHT22;32291;52.010;4.446;2024-02-21T01:17:38;10.10;99.90
47521;DHT22;32291;52.010;4.446;2024-02-21T01:21:27;10.10;99.90
47521;DHT22;32291;52.010;4.446;2024-02-21T01:23:15;10.10;99.90
47521;DHT22;32291;52.010;4.446;2024-02-21T01:25:45;10.10;99.90
47521;DHT22;32291;52.010;4.446;2024-02-21T01:27:57;10.10;99.90
47521;DHT22;32291;52.010;4.446;2024-02-21T01:29:27;10.10;99.90
47521;DHT22;32291;52.010;4.446;2024-02-21T01:31:22;10.10;99.90
47521;DHT22;32291;52.010;4.446;2024-02-21T01:33:02;10.10;99.90
47521;DHT22;32291;52.010;4.446;2024-02-21T01:34:09;10.10;99.90
47521;DHT22;32291;52.010;4.446;2024-02-21T01:35:16;10.10;99.90
47521;DHT22;32291;52.010;4.446;2024-02-21T01:36:23;10.10;99.90
47521;DHT22;32291;52.010;4.446;2024-02-21T01:37:30;10.20;99.90
47521;DHT22;32291;52.010;4.446;2024-02-21T01:38:32;10.10;99.90
47521;DHT22;32291;52.010;4.446;2024-02-21T01:39:39;10.10;99.90
47521;DHT22;32291;52.010;4.446;2024-02-21T01:40:46;10.10;99.90
47521;DHT22;32291;52.010;4.446;2024-02-21T01:41:53;10.10;99.90
47521;DHT22;32291;52.010;4.446;2024-02-21T01:43:00;10.10;99.90
47521;DHT22;32291;52.010;4.446;2024-02-21T01:44:07;10.10;99.90
47521;DHT22;32291;52.010;4.446;2024-02-21T01:45:09;10.10;99.90
47521;DHT22;32291;52.010;4.446;2024-02-21T01:46:16;10.10;99.90
47521;DHT22;32291;52.010;4.446;2024-02-21T01:47:19;10.00;99.90
47521;DHT22;32291;52.010;4.446;2024-02-21T01:48:26;10.10;99.90
47521;DHT22;32291;52.010;4.446;2024-02-21T01:49:34;10.10;99.90
47521;DHT22;32291;52.010;4.446;2024-02-21T01:50:40;10.10;99.90
47521;DHT22;32291;52.010;4.446;2024-02-21T01:51:47;10.10;99.90
47521;DHT22;32291;52.010;4.446;2024-02-21T01:52:54;10.10;99.90
47521;DHT22;32291;52.010;4.446;2024-02-21T01:54:01;10.10;99.90
47521;DHT22;32291;52.010;4.446;2024-02-21T01:55:09;10.00;99.90
47521;DHT22;32291;52.010;4.446;2024-02-21T01:56:17;10.10;99.90
47521;DHT22;32291;52.010;4.446;2024-02-21T01:57:20;10.10;99.90
47521;DHT22;32291;52.010;4.446;2024-02-21T01:58:28;10.10;99.90
47521;DHT22;32291;52.010;4.446;2024-02-21T01:59:36;10.10;99.90
47521;DHT22;32291;52.010;4.446;2024-02-21T02:00:41;10.10;99.90
47521;DHT22;32291;52.010;4.446;2024-02-21T02:01:46;10.10;99.90
47521;DHT22;32291;52.010;4.446;2024-02-21T02:02:54;10.10;99.90
47521;DHT22;32291;52.010;4.446;2024-02-21T02:04:02;10.00;99.90
47521;DHT22;32291;52.010;4.446;2024-02-21T02:05:11;10.10;99.90
47521;DHT22;32291;52.010;4.446;2024-02-21T02:06:14;10.10;99.90
47521;DHT22;32291;52.010;4.446;2024-02-21T02:07:16;10.10;99.90
47521;DHT22;32291;52.010;4.446;2024-02-21T02:08:19;10.10;99.90
47521;DHT22;32291;52.010;4.446;2024-02-21T02:09:28;10.10;99.90
47521;DHT22;32291;52.010;4.446;2024-02-21T02:10:31;10.10;99.90
47521;DHT22;32291;52.010;4.446;2024-02-21T02:11:37;10.10;99.90
47521;DHT22;32291;52.010;4.446;2024-02-21T02:12:45;10.10;99.90
47521;DHT22;32291;52.010;4.446;2024-02-21T02:13:52;10.00;99.90
47521;DHT22;32291;52.010;4.446;2024-02-21T02:15:03;10.00;99.90
47521;DHT22;32291;52.010;4.446;2024-02-21T02:16:14;10.10;99.90
47521;DHT22;32291;52.010;4.446;2024-02-21T02:17:21;10.00;99.90
47521;DHT22;32291;52.010;4.446;2024-02-21T02:18:30;10.00;99.90
47521;DHT22;32291;52.010;4.446;2024-02-21T02:19:37;10.00;99.90
47521;DHT22;32291;52.010;4.446;2024-02-21T02:20:46;10.10;99.90
47521;DHT22;32291;52.010;4.446;2024-02-21T02:21:59;10.10;99.90
47521;DHT22;32291;52.010;4.446;2024-02-21T02:24:38;10.10;99.90
47521;DHT22;32291;52.010;4.446;2024-02-21T02:25:45;10.10;99.90
47521;DHT22;32291;52.010;4.446;2024-02-21T02:26:50;10.00;99.90
47521;DHT22;32291;52.010;4.446;2024-02-21T02:27:58;10.10;99.90
47521;DHT22;32291;52.010;4.446;2024-02-21T02:29:05;10.10;99.90
47521;DHT22;32291;52.010;4.446;2024-02-21T02:30:12;10.10;99.90
47521;DHT22;32291;52.010;4.446;2024-02-21T02:31:19;10.10;99.90
47521;DHT22;32291;52.010;4.446;2024-02-21T02:32:25;10.10;99.90
47521;DHT22;32291;52.010;4.446;2024-02-21T02:33:32;10.10;99.90
47521;DHT22;32291;52.010;4.446;2024-02-21T02:34:39;10.10;99.90
47521;DHT22;32291;52.010;4.446;2024-02-21T02:35:46;10.10;99.90
47521;DHT22;32291;52.010;4.446;2024-02-21T02:36:54;10.10;99.90
47521;DHT22;32291;52.010;4.446;2024-02-21T02:38:01;10.10;99.90
47521;DHT22;32291;52.010;4.446;2024-02-21T02:39:08;10.10;99.90
47521;DHT22;32291;52.010;4.446;2024-02-21T02:40:15;10.00;99.90
47521;DHT22;32291;52.010;4.446;2024-02-21T02:41:22;10.00;99.90
47521;DHT22;32291;52.010;4.446;2024-02-21T02:42:28;10.00;99.90
47521;DHT22;32291;52.010;4.446;2024-02-21T02:43:35;10.00;99.90
47521;DHT22;32291;52.010;4.446;2024-02-21T02:44:43;10.00;99.90
47521;DHT22;32291;52.010;4.446;2024-02-21T02:45:50;10.00;99.90
47521;DHT22;32291;52.010;4.446;2024-02-21T02:46:56;10.00;99.90
47521;DHT22;32291;52.010;4.446;2024-02-21T02:48:04;10.00;99.90
47521;DHT22;32291;52.010;4.446;2024-02-21T02:49:11;10.00;99.90
47521;DHT22;32291;52.010;4.446;2024-02-21T02:50:18;10.00;99.90
47521;DHT22;32291;52.010;4.446;2024-02-21T02:51:24;10.00;99.90
47521;DHT22;32291;52.010;4.446;2024-02-21T02:52:31;10.00;99.90
47521;DHT22;32291;52.010;4.446;2024-02-21T02:53:38;10.00;99.90
47521;DHT22;32291;52.010;4.446;2024-02-21T02:54:45;10.00;99.90
47521;DHT22;32291;52.010;4.446;2024-02-21T02:56:00;10.00;99.90
47521;DHT22;32291;52.010;4.446;2024-02-21T02:57:02;10.00;99.90
47521;DHT22;32291;52.010;4.446;2024-02-21T02:58:11;10.00;99.90
47521;DHT22;32291;52.010;4.446;2024-02-21T02:59:13;10.00;99.90
47521;DHT22;32291;52.010;4.446;2024-02-21T03:00:20;10.10;99.90
47521;DHT22;32291;52.010;4.446;2024-02-21T03:01:27;10.00;99.90
47521;DHT22;32291;52.010;4.446;2024-02-21T03:02:34;10.00;99.90
47521;DHT22;32291;52.010;4.446;2024-02-21T03:03:37;10.00;99.90
47521;DHT22;32291;52.010;4.446;2024-02-21T03:04:40;10.00;99.90
47521;DHT22;32291;52.010;4.446;2024-02-21T03:05:46;10.00;99.90
47521;DHT22;32291;52.010;4.446;2024-02-21T03:06:53;10.00;99.90
47521;DHT22;32291;52.010;4.446;2024-02-21T03:08:00;10.00;99.90
47521;DHT22;32291;52.010;4.446;2024-02-21T03:09:05;10.00;99.90
47521;DHT22;32291;52.010;4.446;2024-02-21T03:10:15;10.00;99.90
47521;DHT22;32291;52.010;4.446;2024-02-21T03:11:22;10.00;99.90
47521;DHT22;32291;52.010;4.446;2024-02-21T03:12:35;10.00;99.90
47521;DHT22;32291;52.010;4.446;2024-02-21T03:13:42;10.00;99.90
47521;DHT22;32291;52.010;4.446;2024-02-21T03:14:49;10.00;99.90
47521;DHT22;32291;52.010;4.446;2024-02-21T03:15:56;10.00;99.90
47521;DHT22;32291;52.010;4.446;2024-02-21T03:17:03;10.00;99.90
47521;DHT22;32291;52.010;4.446;2024-02-21T03:18:14;10.00;99.90
47521;DHT22;32291;52.010;4.446;2024-02-21T03:19:20;9.90;99.90
47521;DHT22;32291;52.010;4.446;2024-02-21T03:20:22;10.00;99.90
47521;DHT22;32291;52.010;4.446;2024-02-21T03:21:29;10.00;99.90
47521;DHT22;32291;52.010;4.446;2024-02-21T03:22:32;10.00;99.90
47521;DHT22;32291;52.010;4.446;2024-02-21T03:23:39;10.00;99.90
47521;DHT22;32291;52.010;4.446;2024-02-21T03:24:45;10.00;99.90
47521;DHT22;32291;52.010;4.446;2024-02-21T03:25:52;10.00;99.90
47521;DHT22;32291;52.010;4.446;2024-02-21T03:26:59;10.00;99.90
47521;DHT22;32291;52.010;4.446;2024-02-21T03:28:06;10.00;99.90
47521;DHT22;32291;52.010;4.446;2024-02-21T03:29:10;10.00;99.90
47521;DHT22;32291;52.010;4.446;2024-02-21T03:30:17;10.00;99.90
47521;DHT22;32291;52.010;4.446;2024-02-21T03:31:24;10.00;99.90
47521;DHT22;32291;52.010;4.446;2024-02-21T03:32:26;10.00;99.90
47521;DHT22;32291;52.010;4.446;2024-02-21T03:33:34;9.90;99.90
47521;DHT22;32291;52.010;4.446;2024-02-21T03:34:41;9.90;99.90
47521;DHT22;32291;52.010;4.446;2024-02-21T03:35:48;9.90;99.90
47521;DHT22;32291;52.010;4.446;2024-02-21T03:36:55;9.90;99.90
47521;DHT22;32291;52.010;4.446;2024-02-21T03:38:01;9.90;99.90
47521;DHT22;32291;52.010;4.446;2024-02-21T03:39:08;9.90;99.90
47521;DHT22;32291;52.010;4.446;2024-02-21T03:40:11;9.90;99.90
47521;DHT22;32291;52.010;4.446;2024-02-21T03:41:15;10.00;99.90
47521;DHT22;32291;52.010;4.446;2024-02-21T03:42:22;9.90;99.90
47521;DHT22;32291;52.010;4.446;2024-02-21T03:43:29;9.90;99.90
47521;DHT22;32291;52.010;4.446;2024-02-21T03:44:31;9.90;99.90
47521;DHT22;32291;52.010;4.446;2024-02-21T03:45:38;9.90;99.90
47521;DHT22;32291;52.010;4.446;2024-02-21T03:46:45;9.90;99.90
47521;DHT22;32291;52.010;4.446;2024-02-21T03:47:52;10.00;99.90
47521;DHT22;32291;52.010;4.446;2024-02-21T03:48:59;9.90;99.90
47521;DHT22;32291;52.010;4.446;2024-02-21T03:50:07;9.90;99.90
47521;DHT22;32291;52.010;4.446;2024-02-21T03:51:15;9.90;99.90
47521;DHT22;32291;52.010;4.446;2024-02-21T03:52:22;9.90;99.90
47521;DHT22;32291;52.010;4.446;2024-02-21T03:53:28;9.90;99.90
47521;DHT22;32291;52.010;4.446;2024-02-21T03:54:31;9.90;99.90
47521;DHT22;32291;52.010;4.446;2024-02-21T03:55:33;9.90;99.90
47521;DHT22;32291;52.010;4.446;2024-02-21T03:56:39;9.90;99.90
47521;DHT22;32291;52.010;4.446;2024-02-21T03:57:46;9.90;99.90
47521;DHT22;32291;52.010;4.446;2024-02-21T03:58:53;9.90;99.90
47521;DHT22;32291;52.010;4.446;2024-02-21T04:00:00;9.90;99.90
47521;DHT22;32291;52.010;4.446;2024-02-21T04:01:07;9.90;99.90
47521;DHT22;32291;52.010;4.446;2024-02-21T04:02:14;10.00;99.90
47521;DHT22;32291;52.010;4.446;2024-02-21T04:03:21;9.90;99.90
47521;DHT22;32291;52.010;4.446;2024-02-21T04:04:29;9.90;99.90
47521;DHT22;32291;52.010;4.446;2024-02-21T04:05:36;9.90;99.90
47521;DHT22;32291;52.010;4.446;2024-02-21T04:06:48;9.90;99.90
47521;DHT22;32291;52.010;4.446;2024-02-21T04:07:56;9.90;99.90
47521;DHT22;32291;52.010;4.446;2024-02-21T04:08:58;9.90;99.90
47521;DHT22;32291;52.010;4.446;2024-02-21T04:10:00;9.90;99.90
47521;DHT22;32291;52.010;4.446;2024-02-21T04:11:07;9.90;99.90
47521;DHT22;32291;52.010;4.446;2024-02-21T04:12:09;9.90;99.90
47521;DHT22;32291;52.010;4.446;2024-02-21T04:13:16;9.90;99.90
47521;DHT22;32291;52.010;4.446;2024-02-21T04:14:23;9.90;99.90
47521;DHT22;32291;52.010;4.446;2024-02-21T04:15:30;9.90;99.90
47521;DHT22;32291;52.010;4.446;2024-02-21T04:16:37;9.90;99.90
47521;DHT22;32291;52.010;4.446;2024-02-21T04:17:44;9.90;99.90
47521;DHT22;32291;52.010;4.446;2024-02-21T04:18:51;9.90;99.90
47521;DHT22;32291;52.010;4.446;2024-02-21T04:20:05;9.90;99.90
47521;DHT22;32291;52.010;4.446;2024-02-21T04:21:15;9.90;99.90
47521;DHT22;32291;52.010;4.446;2024-02-21T04:22:24;9.90;99.90
47521;DHT22;32291;52.010;4.446;2024-02-21T04:23:31;9.90;99.90
47521;DHT22;32291;52.010;4.446;2024-02-21T04:24:38;9.80;99.90
47521;DHT22;32291;52.010;4.446;2024-02-21T04:25:45;9.80;99.90
47521;DHT22;32291;52.010;4.446;2024-02-21T04:26:52;9.80;99.90
47521;DHT22;32291;52.010;4.446;2024-02-21T04:28:04;9.90;99.90
47521;DHT22;32291;52.010;4.446;2024-02-21T04:29:11;9.80;99.90
47521;DHT22;32291;52.010;4.446;2024-02-21T04:30:18;9.80;99.90
47521;DHT22;32291;52.010;4.446;2024-02-21T04:31:25;9.80;99.90
47521;DHT22;32291;52.010;4.446;2024-02-21T04:32:32;9.80;99.90
47521;DHT22;32291;52.010;4.446;2024-02-21T04:33:39;9.80;99.90
47521;DHT22;32291;52.010;4.446;2024-02-21T04:34:41;9.90;99.90
47521;DHT22;32291;52.010;4.446;2024-02-21T04:35:44;9.80;99.90
47521;DHT22;32291;52.010;4.446;2024-02-21T04:36:50;9.90;99.90
47521;DHT22;32291;52.010;4.446;2024-02-21T04:37:57;9.90;99.90
47521;DHT22;32291;52.010;4.446;2024-02-21T04:39:04;9.90;99.90
47521;DHT22;32291;52.010;4.446;2024-02-21T04:40:11;9.90;99.90
47521;DHT22;32291;52.010;4.446;2024-02-21T04:41:13;9.90;99.90
47521;DHT22;32291;52.010;4.446;2024-02-21T04:42:20;9.90;99.90
47521;DHT22;32291;52.010;4.446;2024-02-21T04:43:27;9.90;99.90
47521;DHT22;32291;52.010;4.446;2024-02-21T04:44:29;9.80;99.90
47521;DHT22;32291;52.010;4.446;2024-02-21T04:45:31;9.80;99.90
47521;DHT22;32291;52.010;4.446;2024-02-21T04:46:42;9.80;99.90
47521;DHT22;32291;52.010;4.446;2024-02-21T04:47:49;9.80;99.90
47521;DHT22;32291;52.010;4.446;2024-02-21T04:48:56;9.80;99.90
47521;DHT22;32291;52.010;4.446;2024-02-21T04:50:03;9.90;99.90
47521;DHT22;32291;52.010;4.446;2024-02-21T04:51:05;9.80;99.90
47521;DHT22;32291;52.010;4.446;2024-02-21T04:52:12;9.80;99.90
47521;DHT22;32291;52.010;4.446;2024-02-21T04:53:19;9.80;99.90
47521;DHT22;32291;52.010;4.446;2024-02-21T04:54:26;9.80;99.90
47521;DHT22;32291;52.010;4.446;2024-02-21T04:55:33;9.80;99.90
47521;DHT22;32291;52.010;4.446;2024-02-21T04:56:39;9.80;99.90
47521;DHT22;32291;52.010;4.446;2024-02-21T04:57:41;9.80;99.90
47521;DHT22;32291;52.010;4.446;2024-02-21T04:58:48;9.80;99.90
47521;DHT22;32291;52.010;4.446;2024-02-21T04:59:55;9.80;99.90
47521;DHT22;32291;52.010;4.446;2024-02-21T05:01:02;9.80;99.90
47521;DHT22;32291;52.010;4.446;2024-02-21T05:02:12;9.80;99.90
47521;DHT22;32291;52.010;4.446;2024-02-21T05:03:19;9.70;99.90
47521;DHT22;32291;52.010;4.446;2024-02-21T05:04:26;9.80;99.90
47521;DHT22;32291;52.010;4.446;2024-02-21T05:05:28;9.80;99.90
47521;DHT22;32291;52.010;4.446;2024-02-21T05:06:39;9.80;99.90
47521;DHT22;32291;52.010;4.446;2024-02-21T05:07:47;9.80;99.90
47521;DHT22;32291;52.010;4.446;2024-02-21T05:08:54;9.80;99.90
47521;DHT22;32291;52.010;4.446;2024-02-21T05:10:01;9.70;99.90
47521;DHT22;32291;52.010;4.446;2024-02-21T05:11:08;9.70;99.90
47521;DHT22;32291;52.010;4.446;2024-02-21T05:12:15;9.70;99.90
47521;DHT22;32291;52.010;4.446;2024-02-21T05:13:23;9.70;99.90
47521;DHT22;32291;52.010;4.446;2024-02-21T05:14:29;9.70;99.90
47521;DHT22;32291;52.010;4.446;2024-02-21T05:15:36;9.70;99.90
47521;DHT22;32291;52.010;4.446;2024-02-21T05:16:43;9.70;99.90
47521;DHT22;32291;52.010;4.446;2024-02-21T05:17:50;9.70;99.90
47521;DHT22;32291;52.010;4.446;2024-02-21T05:18:57;9.70;99.90
47521;DHT22;32291;52.010;4.446;2024-02-21T05:20:04;9.70;99.90
47521;DHT22;32291;52.010;4.446;2024-02-21T05:21:10;9.70;99.90
47521;DHT22;32291;52.010;4.446;2024-02-21T05:22:16;9.70;99.90
47521;DHT22;32291;52.010;4.446;2024-02-21T05:23:23;9.80;99.90
47521;DHT22;32291;52.010;4.446;2024-02-21T05:24:30;9.80;99.90
47521;DHT22;32291;52.010;4.446;2024-02-21T05:25:32;9.80;99.90
47521;DHT22;32291;52.010;4.446;2024-02-21T05:26:39;9.80;99.90
47521;DHT22;32291;52.010;4.446;2024-02-21T05:27:41;9.80;99.90
47521;DHT22;32291;52.010;4.446;2024-02-21T05:28:48;9.70;99.90
47521;DHT22;32291;52.010;4.446;2024-02-21T05:29:56;9.70;99.90
47521;DHT22;32291;52.010;4.446;2024-02-21T05:31:03;9.70;99.90
47521;DHT22;32291;52.010;4.446;2024-02-21T05:32:10;9.70;99.90
47521;DHT22;32291;52.010;4.446;2024-02-21T05:33:17;9.70;99.90
47521;DHT22;32291;52.010;4.446;2024-02-21T05:34:23;9.60;99.90
47521;DHT22;32291;52.010;4.446;2024-02-21T05:35:30;9.70;99.90
47521;DHT22;32291;52.010;4.446;2024-02-21T05:36:37;9.80;99.90
47521;DHT22;32291;52.010;4.446;2024-02-21T05:37:44;9.70;99.90
47521;DHT22;32291;52.010;4.446;2024-02-21T05:38:53;9.70;99.90
47521;DHT22;32291;52.010;4.446;2024-02-21T05:39:59;9.70;99.90
47521;DHT22;32291;52.010;4.446;2024-02-21T05:41:06;9.70;99.90
47521;DHT22;32291;52.010;4.446;2024-02-21T05:42:13;9.70;99.90
47521;DHT22;32291;52.010;4.446;2024-02-21T05:43:20;9.70;99.90
47521;DHT22;32291;52.010;4.446;2024-02-21T05:44:27;9.70;99.90
47521;DHT22;32291;52.010;4.446;2024-02-21T05:45:34;9.70;99.90
47521;DHT22;32291;52.010;4.446;2024-02-21T05:46:41;9.70;99.90
47521;DHT22;32291;52.010;4.446;2024-02-21T05:47:43;9.70;99.90
47521;DHT22;32291;52.010;4.446;2024-02-21T05:48:50;9.70;99.90
47521;DHT22;32291;52.010;4.446;2024-02-21T05:49:57;9.70;99.90
47521;DHT22;32291;52.010;4.446;2024-02-21T05:51:04;9.70;99.90
47521;DHT22;32291;52.010;4.446;2024-02-21T05:52:11;9.70;99.90
47521;DHT22;32291;52.010;4.446;2024-02-21T05:53:17;9.70;99.90
47521;DHT22;32291;52.010;4.446;2024-02-21T05:54:24;9.70;99.90
47521;DHT22;32291;52.010;4.446;2024-02-21T05:55:31;9.70;99.90
47521;DHT22;32291;52.010;4.446;2024-02-21T05:56:38;9.80;99.90
47521;DHT22;32291;52.010;4.446;2024-02-21T05:57:45;9.70;99.90
47521;DHT22;32291;52.010;4.446;2024-02-21T05:58:51;9.70;99.90
47521;DHT22;32291;52.010;4.446;2024-02-21T05:59:58;9.70;99.90
47521;DHT22;32291;52.010;4.446;2024-02-21T06:01:06;9.70;99.90
47521;DHT22;32291;52.010;4.446;2024-02-21T06:02:14;9.70;99.90
47521;DHT22;32291;52.010;4.446;2024-02-21T06:03:21;9.70;99.90
47521;DHT22;32291;52.010;4.446;2024-02-21T06:04:28;9.70;99.90
47521;DHT22;32291;52.010;4.446;2024-02-21T06:05:38;9.70;99.90
47521;DHT22;32291;52.010;4.446;2024-02-21T06:06:45;9.70;99.90
47521;DHT22;32291;52.010;4.446;2024-02-21T06:07:52;9.70;99.90
47521;DHT22;32291;52.010;4.446;2024-02-21T06:08:58;9.70;99.90
47521;DHT22;32291;52.010;4.446;2024-02-21T06:10:07;9.70;99.90
47521;DHT22;32291;52.010;4.446;2024-02-21T06:11:15;9.70;99.90
47521;DHT22;32291;52.010;4.446;2024-02-21T06:12:22;9.60;99.90
47521;DHT22;32291;52.010;4.446;2024-02-21T06:13:28;9.60;99.90
47521;DHT22;32291;52.010;4.446;2024-02-21T06:14:36;9.60;99.90
47521;DHT22;32291;52.010;4.446;2024-02-21T06:15:50;9.60;99.90
47521;DHT22;32291;52.010;4.446;2024-02-21T06:17:03;9.60;99.90
47521;DHT22;32291;52.010;4.446;2024-02-21T06:18:09;9.70;99.90
47521;DHT22;32291;52.010;4.446;2024-02-21T06:19:16;9.70;99.90
47521;DHT22;32291;52.010;4.446;2024-02-21T06:20:23;9.60;99.90
47521;DHT22;32291;52.010;4.446;2024-02-21T06:21:29;9.60;99.90
47521;DHT22;32291;52.010;4.446;2024-02-21T06:22:36;9.60;99.90
47521;DHT22;32291;52.010;4.446;2024-02-21T06:23:46;9.70;99.90
47521;DHT22;32291;52.010;4.446;2024-02-21T06:24:53;9.70;99.90
47521;DHT22;32291;52.010;4.446;2024-02-21T06:26:00;9.60;99.90
47521;DHT22;32291;52.010;4.446;2024-02-21T06:27:07;9.70;99.90
47521;DHT22;32291;52.010;4.446;2024-02-21T06:28:14;9.70;99.90
47521;DHT22;32291;52.010;4.446;2024-02-21T06:29:21;9.60;99.90
47521;DHT22;32291;52.010;4.446;2024-02-21T06:30:23;9.60;99.90
47521;DHT22;32291;52.010;4.446;2024-02-21T06:31:30;9.60;99.90
47521;DHT22;32291;52.010;4.446;2024-02-21T06:32:33;9.60;99.90
47521;DHT22;32291;52.010;4.446;2024-02-21T06:33:40;9.60;99.90
47521;DHT22;32291;52.010;4.446;2024-02-21T06:34:47;9.60;99.90
47521;DHT22;32291;52.010;4.446;2024-02-21T06:35:54;9.60;99.90
47521;DHT22;32291;52.010;4.446;2024-02-21T06:37:01;9.60;99.90
47521;DHT22;32291;52.010;4.446;2024-02-21T06:38:08;9.60;99.90
47521;DHT22;32291;52.010;4.446;2024-02-21T06:39:15;9.60;99.90
47521;DHT22;32291;52.010;4.446;2024-02-21T06:40:23;9.60;99.90
47521;DHT22;32291;52.010;4.446;2024-02-21T06:41:30;9.60;99.90
47521;DHT22;32291;52.010;4.446;2024-02-21T06:42:39;9.60;99.90
47521;DHT22;32291;52.010;4.446;2024-02-21T06:43:46;9.60;99.90
47521;DHT22;32291;52.010;4.446;2024-02-21T06:44:53;9.60;99.90
47521;DHT22;32291;52.010;4.446;2024-02-21T06:45:55;9.60;99.90
47521;DHT22;32291;52.010;4.446;2024-02-21T06:47:03;9.60;99.90
47521;DHT22;32291;52.010;4.446;2024-02-21T06:48:10;9.60;99.90
47521;DHT22;32291;52.010;4.446;2024-02-21T06:49:17;9.60;99.90
47521;DHT22;32291;52.010;4.446;2024-02-21T06:50:24;9.60;99.90
47521;DHT22;32291;52.010;4.446;2024-02-21T06:51:30;9.60;99.90
47521;DHT22;32291;52.010;4.446;2024-02-21T06:52:33;9.60;99.90
47521;DHT22;32291;52.010;4.446;2024-02-21T06:53:40;9.70;99.90
47521;DHT22;32291;52.010;4.446;2024-02-21T06:54:47;9.60;99.90
47521;DHT22;32291;52.010;4.446;2024-02-21T06:55:54;9.60;99.90
47521;DHT22;32291;52.010;4.446;2024-02-21T06:57:00;9.60;99.90
47521;DHT22;32291;52.010;4.446;2024-02-21T06:58:09;9.60;99.90
47521;DHT22;32291;52.010;4.446;2024-02-21T06:59:20;9.60;99.90
47521;DHT22;32291;52.010;4.446;2024-02-21T07:00:30;9.60;99.90
47521;DHT22;32291;52.010;4.446;2024-02-21T07:01:32;9.60;99.90
47521;DHT22;32291;52.010;4.446;2024-02-21T07:02:39;9.60;99.90
47521;DHT22;32291;52.010;4.446;2024-02-21T07:03:46;9.60;99.90
47521;DHT22;32291;52.010;4.446;2024-02-21T07:04:48;9.60;99.90
47521;DHT22;32291;52.010;4.446;2024-02-21T07:05:55;9.60;99.90
47521;DHT22;32291;52.010;4.446;2024-02-21T07:07:02;9.60;99.90
47521;DHT22;32291;52.010;4.446;2024-02-21T07:08:09;9.60;99.90
47521;DHT22;32291;52.010;4.446;2024-02-21T07:09:16;9.60;99.90
47521;DHT22;32291;52.010;4.446;2024-02-21T07:10:18;9.60;99.90
47521;DHT22;32291;52.010;4.446;2024-02-21T07:11:25;9.60;99.90
47521;DHT22;32291;52.010;4.446;2024-02-21T07:12:31;9.60;99.90
47521;DHT22;32291;52.010;4.446;2024-02-21T07:13:34;9.60;99.90
47521;DHT22;32291;52.010;4.446;2024-02-21T07:14:40;9.60;99.90
47521;DHT22;32291;52.010;4.446;2024-02-21T07:15:48;9.50;99.90
47521;DHT22;32291;52.010;4.446;2024-02-21T07:16:50;9.50;99.90
47521;DHT22;32291;52.010;4.446;2024-02-21T07:17:57;9.50;99.90
47521;DHT22;32291;52.010;4.446;2024-02-21T07:18:59;9.50;99.90